createdAt,value
2022-12-03T00:00:18.692Z,31.70
2022-12-03T00:01:18.751Z,30.30
2022-12-03T00:02:18.865Z,31.00
2022-12-03T00:03:18.843Z,31.20
2022-12-03T00:04:18.600Z,31.00
2022-12-03T00:05:18.552Z,29.60
2022-12-03T00:06:18.546Z,32.20
2022-12-03T00:07:18.548Z,30.60
2022-12-03T00:08:18.629Z,29.30
2022-12-03T00:09:18.518Z,30.40
2022-12-03T00:10:18.503Z,30.10
2022-12-03T00:13:12.367Z,31.90
2022-12-03T00:14:12.412Z,31.30
2022-12-03T00:15:12.353Z,30.40
2022-12-03T00:16:12.439Z,29.70
2022-12-03T00:17:12.293Z,32.00
2022-12-03T00:18:12.279Z,31.30
2022-12-03T00:19:12.331Z,31.70
2022-12-03T00:20:12.248Z,30.70
2022-12-03T00:21:12.198Z,31.70
2022-12-03T00:22:12.952Z,31.40
2022-12-03T00:23:12.148Z,31.20
2022-12-03T00:24:12.183Z,31.50
2022-12-03T00:25:12.136Z,31.00
2022-12-03T00:26:12.111Z,30.60
2022-12-03T00:27:12.107Z,30.60
2022-12-03T00:28:12.051Z,30.50
2022-12-03T00:29:12.006Z,29.60
2022-12-03T00:30:11.996Z,31.00
2022-12-03T00:31:12.419Z,30.90
2022-12-03T00:32:11.954Z,30.10
2022-12-03T00:33:11.878Z,31.20
2022-12-03T00:34:11.895Z,31.00
2022-12-03T00:35:11.878Z,31.20
2022-12-03T00:36:11.833Z,32.30
2022-12-03T00:37:11.815Z,31.40
2022-12-03T00:38:11.802Z,30.70
2022-12-03T00:39:11.734Z,30.50
2022-12-03T00:40:11.704Z,31.30
2022-12-03T00:41:11.664Z,30.60
2022-12-03T00:42:11.672Z,31.00
2022-12-03T00:43:11.623Z,31.80
2022-12-03T00:44:11.604Z,32.00
2022-12-03T00:45:11.569Z,31.90
2022-12-03T00:46:11.884Z,31.40
2022-12-03T00:47:11.558Z,31.10
2022-12-03T00:48:11.504Z,31.30
2022-12-03T00:49:11.496Z,32.70
2022-12-03T00:50:11.416Z,32.00
2022-12-03T00:51:11.382Z,32.10
2022-12-03T00:52:11.403Z,32.40
2022-12-03T00:53:11.335Z,31.50
2022-12-03T00:54:11.356Z,32.40
2022-12-03T00:55:16.306Z,31.80
2022-12-03T00:56:16.379Z,31.20
2022-12-03T00:57:16.224Z,32.70
2022-12-03T00:58:16.224Z,32.80
2022-12-03T00:59:16.192Z,31.20
2022-12-03T01:00:16.194Z,31.80
2022-12-03T01:01:16.233Z,32.30
2022-12-03T01:02:16.204Z,32.30
2022-12-03T01:03:16.098Z,32.70
2022-12-03T01:04:16.186Z,32.00
2022-12-03T01:05:16.107Z,33.80
2022-12-03T01:06:16.068Z,34.30
2022-12-03T01:07:16.074Z,32.80
2022-12-03T01:08:19.932Z,34.30
2022-12-03T01:09:20.007Z,33.00
2022-12-03T01:10:19.944Z,33.50
2022-12-03T01:11:19.958Z,34.10
2022-12-03T01:12:19.919Z,32.20
2022-12-03T01:13:25.793Z,34.10
2022-12-03T01:14:25.891Z,33.90
2022-12-03T01:15:25.849Z,33.60
2022-12-03T01:16:25.953Z,33.50
2022-12-03T01:17:25.808Z,32.60
2022-12-03T01:18:25.776Z,34.70
2022-12-03T01:19:25.737Z,34.30
2022-12-03T01:20:25.729Z,33.60
2022-12-03T01:21:25.701Z,32.90
2022-12-03T01:22:25.687Z,33.80
2022-12-03T01:23:25.657Z,32.90
2022-12-03T01:24:25.632Z,34.20
2022-12-03T01:25:25.584Z,32.20
2022-12-03T01:26:26.047Z,32.00
2022-12-03T01:27:25.552Z,32.80
2022-12-03T01:28:25.553Z,33.80
2022-12-03T01:29:25.509Z,32.80
2022-12-03T01:30:25.492Z,33.80
2022-12-03T01:31:25.604Z,32.50
2022-12-03T01:32:25.437Z,34.00
2022-12-03T01:33:25.406Z,31.90
2022-12-03T01:34:25.399Z,30.80
2022-12-03T01:35:25.361Z,34.60
2022-12-03T01:36:25.336Z,32.10
2022-12-03T01:37:25.292Z,31.50
2022-12-03T01:38:25.297Z,32.50
2022-12-03T01:39:25.273Z,31.00
2022-12-03T01:40:25.250Z,33.50
2022-12-03T01:41:25.252Z,32.20
2022-12-03T01:42:25.209Z,31.70
2022-12-03T01:43:25.169Z,31.60
2022-12-03T01:44:25.157Z,33.60
2022-12-03T01:45:25.111Z,31.80
2022-12-03T01:46:25.174Z,32.00
2022-12-03T01:47:25.072Z,32.10
2022-12-03T01:48:25.053Z,31.40
2022-12-03T01:49:25.024Z,31.00
2022-12-03T01:50:25.052Z,31.50
2022-12-03T01:51:24.966Z,32.20
2022-12-03T01:52:24.962Z,30.00
2022-12-03T01:53:25.017Z,31.60
2022-12-03T01:54:29.867Z,31.90
2022-12-03T01:55:29.875Z,31.20
2022-12-03T01:56:29.846Z,30.20
2022-12-03T01:57:29.850Z,32.40
2022-12-03T01:58:29.817Z,31.80
2022-12-03T01:59:29.775Z,32.70
2022-12-03T02:00:29.763Z,32.70
2022-12-03T02:01:29.804Z,32.30
2022-12-03T02:02:30.126Z,29.90
2022-12-03T02:03:29.795Z,32.40
2022-12-03T02:04:29.779Z,31.80
2022-12-03T02:05:29.669Z,31.80
2022-12-03T02:06:29.587Z,32.40
2022-12-03T02:07:29.618Z,33.70
2022-12-03T02:08:29.504Z,32.50
2022-12-03T02:09:29.508Z,31.50
2022-12-03T02:10:29.467Z,32.50
2022-12-03T02:11:29.552Z,31.70
2022-12-03T02:12:29.395Z,32.50
2022-12-03T02:13:29.407Z,32.10
2022-12-03T02:14:29.390Z,30.90
2022-12-03T02:15:29.372Z,30.70
2022-12-03T02:16:29.378Z,32.40
2022-12-03T02:17:29.318Z,32.30
2022-12-03T02:18:29.293Z,33.30
2022-12-03T02:19:29.271Z,32.10
2022-12-03T02:20:29.254Z,31.50
2022-12-03T02:21:35.139Z,32.50
2022-12-03T02:22:35.238Z,33.20
2022-12-03T02:23:35.141Z,31.60
2022-12-03T02:24:35.145Z,32.20
2022-12-03T02:25:35.295Z,33.40
2022-12-03T02:26:35.115Z,30.40
2022-12-03T02:27:35.058Z,31.20
2022-12-03T02:28:35.181Z,31.00
2022-12-03T02:29:35.025Z,32.20
2022-12-03T02:30:35.025Z,31.50
2022-12-03T02:31:35.057Z,33.90
2022-12-03T02:32:34.995Z,33.40
2022-12-03T02:33:34.951Z,32.40
2022-12-03T02:34:34.958Z,32.10
2022-12-03T02:35:34.903Z,32.50
2022-12-03T02:36:34.902Z,33.30
2022-12-03T02:37:34.858Z,32.90
2022-12-03T02:38:34.843Z,32.70
2022-12-03T02:39:34.821Z,32.20
2022-12-03T02:40:34.818Z,32.80
2022-12-03T02:41:35.513Z,31.90
2022-12-03T02:42:34.808Z,33.10
2022-12-03T02:43:34.751Z,32.30
2022-12-03T02:44:34.741Z,32.10
2022-12-03T02:45:34.693Z,33.20
2022-12-03T02:46:34.783Z,32.80
2022-12-03T02:47:34.652Z,32.60
2022-12-03T02:48:34.648Z,33.40
2022-12-03T02:49:34.609Z,34.70
2022-12-03T02:50:34.605Z,34.10
2022-12-03T02:51:34.557Z,32.60
2022-12-03T02:52:38.463Z,32.80
2022-12-03T02:53:38.562Z,31.20
2022-12-03T02:54:38.495Z,31.00
2022-12-03T02:55:38.494Z,32.30
2022-12-03T02:56:38.442Z,32.70
2022-12-03T02:57:44.332Z,31.40
2022-12-03T02:58:44.404Z,33.60
2022-12-03T02:59:44.358Z,32.10
2022-12-03T03:00:49.316Z,31.90
2022-12-03T03:01:54.180Z,32.90
2022-12-03T03:02:54.765Z,31.20
2022-12-03T03:03:54.260Z,32.10
2022-12-03T03:04:54.534Z,32.30
2022-12-03T03:05:54.172Z,33.30
2022-12-03T03:06:54.168Z,33.00
2022-12-03T03:07:54.177Z,34.70
2022-12-03T03:08:54.152Z,34.20
2022-12-03T03:09:54.068Z,32.70
2022-12-03T03:10:54.062Z,33.10
2022-12-03T03:11:54.034Z,32.70
2022-12-03T03:12:58.909Z,33.20
2022-12-03T03:13:59.019Z,31.00
2022-12-03T03:14:58.938Z,33.40
2022-12-03T03:15:58.975Z,32.70
2022-12-03T03:16:58.900Z,33.90
2022-12-03T03:17:58.904Z,33.70
2022-12-03T03:18:58.853Z,32.30
2022-12-03T03:19:58.874Z,32.10
2022-12-03T03:20:58.822Z,32.30
2022-12-03T03:21:58.805Z,32.40
2022-12-03T03:22:58.768Z,34.10
2022-12-03T03:23:58.774Z,32.80
2022-12-03T03:24:58.781Z,32.40
2022-12-03T03:25:58.780Z,33.70
2022-12-03T03:26:58.694Z,33.40
2022-12-03T03:27:58.695Z,32.60
2022-12-03T03:28:58.637Z,32.50
2022-12-03T03:29:58.621Z,32.40
2022-12-03T03:30:58.580Z,31.80
2022-12-03T03:31:58.665Z,34.20
2022-12-03T03:32:58.544Z,32.30
2022-12-03T03:33:58.775Z,35.10
2022-12-03T03:34:58.494Z,33.40
2022-12-03T03:35:58.539Z,32.50
2022-12-03T03:36:58.449Z,33.30
2022-12-03T03:37:58.467Z,33.60
2022-12-03T03:38:58.398Z,33.80
2022-12-03T03:40:03.280Z,33.90
2022-12-03T03:41:03.385Z,32.80
2022-12-03T03:42:09.221Z,35.00
2022-12-03T03:43:09.346Z,32.80
2022-12-03T03:44:09.317Z,31.80
2022-12-03T03:45:09.255Z,32.80
2022-12-03T03:46:09.355Z,34.10
2022-12-03T03:47:09.234Z,33.00
2022-12-03T03:48:15.131Z,34.20
2022-12-03T03:49:15.195Z,34.10
2022-12-03T03:50:15.174Z,34.00
2022-12-03T03:51:15.148Z,34.40
2022-12-03T03:52:15.087Z,34.60
2022-12-03T03:53:15.101Z,34.50
2022-12-03T03:54:15.070Z,35.20
2022-12-03T03:55:15.014Z,35.40
2022-12-03T03:56:14.990Z,35.20
2022-12-03T03:57:14.960Z,35.00
2022-12-03T03:58:14.913Z,35.70
2022-12-03T03:59:14.901Z,35.20
2022-12-03T04:00:14.891Z,35.80
2022-12-03T04:01:14.927Z,34.80
2022-12-03T04:02:14.816Z,34.50
2022-12-03T04:03:14.821Z,37.50
2022-12-03T04:04:14.851Z,35.80
2022-12-03T04:05:14.740Z,37.40
2022-12-03T04:06:14.703Z,37.50
2022-12-03T04:07:14.674Z,36.30
2022-12-03T04:08:14.670Z,35.70
2022-12-03T04:09:14.623Z,35.30
2022-12-03T04:10:14.745Z,36.00
2022-12-03T04:11:14.693Z,35.50
2022-12-03T04:12:14.526Z,35.50
2022-12-03T04:13:18.426Z,37.00
2022-12-03T04:14:18.491Z,36.20
2022-12-03T04:15:18.428Z,38.70
2022-12-03T04:16:18.426Z,37.00
2022-12-03T04:17:18.382Z,37.40
2022-12-03T04:18:18.345Z,37.20
2022-12-03T04:19:18.304Z,38.00
2022-12-03T04:20:18.275Z,37.50
2022-12-03T04:21:18.215Z,38.50
2022-12-03T04:22:18.202Z,37.80
2022-12-03T04:23:18.655Z,34.30
2022-12-03T04:24:18.167Z,36.40
2022-12-03T04:25:18.087Z,37.10
2022-12-03T04:26:18.073Z,38.40
2022-12-03T04:27:18.006Z,36.30
2022-12-03T04:28:18.019Z,35.70
2022-12-03T04:29:17.952Z,37.90
2022-12-03T04:30:21.813Z,34.90
2022-12-03T04:31:22.239Z,34.50
2022-12-03T04:32:26.790Z,36.50
2022-12-03T04:33:26.835Z,36.30
2022-12-03T04:34:26.834Z,37.30
2022-12-03T04:35:26.866Z,36.90
2022-12-03T04:38:20.669Z,35.80
2022-12-03T04:39:20.713Z,33.60
2022-12-03T04:40:20.703Z,36.90
2022-12-03T04:41:20.702Z,35.50
2022-12-03T04:42:20.624Z,35.40
2022-12-03T04:43:20.601Z,35.50
2022-12-03T04:44:20.634Z,35.30
2022-12-03T04:45:26.572Z,35.90
2022-12-03T04:46:26.651Z,35.40
2022-12-03T04:47:26.532Z,34.20
2022-12-03T04:48:26.515Z,35.50
2022-12-03T04:49:26.492Z,35.20
2022-12-03T04:50:26.478Z,35.00
2022-12-03T04:51:26.441Z,33.70
2022-12-03T04:52:26.444Z,34.40
2022-12-03T04:53:26.402Z,35.00
2022-12-03T04:54:26.390Z,37.20
2022-12-03T04:55:26.364Z,33.60
2022-12-03T04:56:26.375Z,36.80
2022-12-03T04:57:26.344Z,35.00
2022-12-03T04:58:26.333Z,33.90
2022-12-03T04:59:26.326Z,35.60
2022-12-03T05:00:26.311Z,35.90
2022-12-03T05:01:26.296Z,35.80
2022-12-03T05:02:26.330Z,37.50
2022-12-03T05:03:26.243Z,36.60
2022-12-03T05:04:31.100Z,36.90
2022-12-03T05:05:31.660Z,36.30
2022-12-03T05:06:31.164Z,35.10
2022-12-03T05:07:31.206Z,37.50
2022-12-03T05:08:31.121Z,35.60
2022-12-03T05:09:31.127Z,35.60
2022-12-03T05:10:31.069Z,37.40
2022-12-03T05:11:31.107Z,38.20
2022-12-03T05:12:31.007Z,37.50
2022-12-03T05:13:31.017Z,36.00
2022-12-03T05:14:31.018Z,35.70
2022-12-03T05:15:30.979Z,34.00
2022-12-03T05:16:31.028Z,36.90
2022-12-03T05:17:30.922Z,33.40
2022-12-03T05:18:30.891Z,35.80
2022-12-03T05:19:30.876Z,34.90
2022-12-03T05:20:30.875Z,37.20
2022-12-03T05:21:30.846Z,33.80
2022-12-03T05:22:30.766Z,35.60
2022-12-03T05:23:30.793Z,32.80
2022-12-03T05:24:30.702Z,33.60
2022-12-03T05:25:34.590Z,35.70
2022-12-03T05:26:34.684Z,34.80
2022-12-03T05:27:34.633Z,35.30
2022-12-03T05:28:34.612Z,34.90
2022-12-03T05:29:34.538Z,35.80
2022-12-03T05:30:34.585Z,34.90
2022-12-03T05:31:34.502Z,34.90
2022-12-03T05:32:39.398Z,34.10
2022-12-03T05:33:43.918Z,36.20
2022-12-03T05:34:39.422Z,33.60
2022-12-03T05:35:45.327Z,33.60
2022-12-03T05:36:45.430Z,32.60
2022-12-03T05:37:45.336Z,33.10
2022-12-03T05:38:45.329Z,33.10
2022-12-03T05:39:45.278Z,33.10
2022-12-03T05:40:45.310Z,32.90
2022-12-03T05:41:45.293Z,33.60
2022-12-03T05:42:50.159Z,34.70
2022-12-03T05:43:56.096Z,39.10
2022-12-03T05:44:56.523Z,33.30
2022-12-03T05:45:56.222Z,34.10
2022-12-03T05:47:01.152Z,35.80
2022-12-03T05:48:01.233Z,37.30
2022-12-03T05:49:01.133Z,35.30
2022-12-03T05:50:01.154Z,35.00
2022-12-03T05:51:01.119Z,34.90
2022-12-03T05:52:01.053Z,36.50
2022-12-03T05:53:01.027Z,33.00
2022-12-03T05:54:01.154Z,34.90
2022-12-03T05:55:00.946Z,34.80
2022-12-03T05:56:00.966Z,33.00
2022-12-03T05:57:00.904Z,34.90
2022-12-03T05:58:06.791Z,33.40
2022-12-03T05:59:07.054Z,33.50
2022-12-03T06:00:12.770Z,33.80
2022-12-03T06:01:12.921Z,32.70
2022-12-03T06:02:13.000Z,34.20
2022-12-03T06:03:12.871Z,35.50
2022-12-03T06:04:12.725Z,34.00
2022-12-03T06:05:12.690Z,35.00
2022-12-03T06:06:12.625Z,35.10
2022-12-03T06:07:14.328Z,35.00
2022-12-03T06:08:12.831Z,34.30
2022-12-03T06:09:17.486Z,33.60
2022-12-03T06:10:17.528Z,34.70
2022-12-03T06:11:17.531Z,32.20
2022-12-03T06:12:17.489Z,34.40
2022-12-03T06:13:17.436Z,31.80
2022-12-03T06:14:17.455Z,33.90
2022-12-03T06:15:17.400Z,34.60
2022-12-03T06:16:17.506Z,34.60
2022-12-03T06:17:17.331Z,34.90
2022-12-03T06:18:17.354Z,35.10
2022-12-03T06:19:17.277Z,33.70
2022-12-03T06:20:21.216Z,33.90
2022-12-03T06:21:21.277Z,34.70
2022-12-03T06:22:21.246Z,34.70
2022-12-03T06:23:25.114Z,35.60
2022-12-03T06:24:25.176Z,32.40
2022-12-03T06:25:25.140Z,36.10
2022-12-03T06:26:25.133Z,33.50
2022-12-03T06:27:25.108Z,34.90
2022-12-03T06:28:25.105Z,33.70
2022-12-03T06:29:25.057Z,34.90
2022-12-03T06:30:25.034Z,33.60
2022-12-03T06:31:25.061Z,34.60
2022-12-03T06:33:28.830Z,36.00
2022-12-03T06:34:28.928Z,34.20
2022-12-03T06:35:28.872Z,34.80
2022-12-03T06:36:28.905Z,34.20
2022-12-03T06:37:28.844Z,33.80
2022-12-03T06:38:28.813Z,35.30
2022-12-03T06:39:28.769Z,35.40
2022-12-03T06:40:28.776Z,35.70
2022-12-03T06:41:28.749Z,34.20
2022-12-03T06:42:28.765Z,36.10
2022-12-03T06:43:28.681Z,35.60
2022-12-03T06:44:28.677Z,32.60
2022-12-03T06:45:28.625Z,36.00
2022-12-03T06:46:28.712Z,34.70
2022-12-03T06:47:28.579Z,36.40
2022-12-03T06:48:34.503Z,34.40
2022-12-03T06:49:34.614Z,34.70
2022-12-03T06:50:34.535Z,34.20
2022-12-03T06:51:34.647Z,35.50
2022-12-03T06:52:34.498Z,34.90
2022-12-03T06:53:34.489Z,36.40
2022-12-03T06:54:34.497Z,35.10
2022-12-03T06:55:34.439Z,35.00
2022-12-03T06:56:37.805Z,36.60
2022-12-03T06:57:34.395Z,37.30
2022-12-03T06:58:34.362Z,36.50
2022-12-03T06:59:34.367Z,36.60
2022-12-03T07:00:34.309Z,36.40
2022-12-03T07:01:38.274Z,36.00
2022-12-03T07:02:38.340Z,36.70
2022-12-03T07:03:38.225Z,35.10
2022-12-03T07:04:42.027Z,36.10
2022-12-03T07:05:38.221Z,36.80
2022-12-03T07:06:38.192Z,36.60
2022-12-03T07:07:38.203Z,36.20
2022-12-03T07:08:38.598Z,37.80
2022-12-03T07:09:38.104Z,38.00
2022-12-03T07:10:38.096Z,36.60
2022-12-03T07:11:38.071Z,37.00
2022-12-03T07:12:38.081Z,37.90
2022-12-03T07:13:38.002Z,36.70
2022-12-03T07:14:37.998Z,35.70
2022-12-03T07:15:37.959Z,35.60
2022-12-03T07:16:38.015Z,37.10
2022-12-03T07:17:37.932Z,37.20
2022-12-03T07:18:37.914Z,38.90
2022-12-03T07:19:37.876Z,36.90
2022-12-03T07:20:37.873Z,36.40
2022-12-03T07:21:37.817Z,37.60
2022-12-03T07:22:37.827Z,37.10
2022-12-03T07:23:37.882Z,35.70
2022-12-03T07:24:37.796Z,36.70
2022-12-03T07:25:37.740Z,37.70
2022-12-03T07:26:37.754Z,37.40
2022-12-03T07:27:37.720Z,39.20
2022-12-03T07:28:37.709Z,37.90
2022-12-03T07:29:37.936Z,38.10
2022-12-03T07:30:42.569Z,38.10
2022-12-03T07:31:42.763Z,39.10
2022-12-03T07:32:42.625Z,36.30
2022-12-03T07:33:48.499Z,37.90
2022-12-03T07:34:48.609Z,38.00
2022-12-03T07:35:48.558Z,38.20
2022-12-03T07:36:48.568Z,38.80
2022-12-03T07:37:48.509Z,38.10
2022-12-03T07:38:48.501Z,37.40
2022-12-03T07:39:48.447Z,37.20
2022-12-03T07:40:48.544Z,40.30
2022-12-03T07:41:53.313Z,39.50
2022-12-03T07:42:53.387Z,38.10
2022-12-03T07:43:53.339Z,38.90
2022-12-03T07:44:53.631Z,38.50
2022-12-03T07:45:53.281Z,39.40
2022-12-03T07:46:53.344Z,39.30
2022-12-03T07:47:53.198Z,37.70
2022-12-03T07:48:53.198Z,38.00
2022-12-03T07:49:53.173Z,37.60
2022-12-03T07:50:53.188Z,40.60
2022-12-03T07:51:53.144Z,38.10
2022-12-03T07:52:53.125Z,37.50
2022-12-03T07:53:53.072Z,35.60
2022-12-03T07:54:53.573Z,34.80
2022-12-03T07:57:46.948Z,36.90
2022-12-03T07:58:47.010Z,36.10
2022-12-03T07:59:46.929Z,38.40
2022-12-03T08:00:51.872Z,37.70
2022-12-03T08:01:51.956Z,37.60
2022-12-03T08:02:51.948Z,38.10
2022-12-03T08:03:51.848Z,38.00
2022-12-03T08:04:52.137Z,38.30
2022-12-03T08:05:51.927Z,39.10
2022-12-03T08:06:51.743Z,37.70
2022-12-03T08:07:51.859Z,37.10
2022-12-03T08:08:51.725Z,37.90
2022-12-03T08:09:51.700Z,37.80
2022-12-03T08:10:51.647Z,37.60
2022-12-03T08:11:57.541Z,37.90
2022-12-03T08:12:57.608Z,38.00
2022-12-03T08:13:57.588Z,39.30
2022-12-03T08:14:57.579Z,41.00
2022-12-03T08:15:57.598Z,40.00
2022-12-03T08:16:57.600Z,37.50
2022-12-03T08:17:57.482Z,38.10
2022-12-03T08:18:57.523Z,38.90
2022-12-03T08:19:57.437Z,38.50
2022-12-03T08:20:57.431Z,39.60
2022-12-03T08:22:01.219Z,38.00
2022-12-03T08:22:57.347Z,39.20
2022-12-03T08:23:57.308Z,38.50
2022-12-03T08:24:57.309Z,39.00
2022-12-03T08:25:57.288Z,37.80
2022-12-03T08:26:57.378Z,38.20
2022-12-03T08:27:57.207Z,38.50
2022-12-03T08:28:57.212Z,36.70
2022-12-03T08:29:57.194Z,36.00
2022-12-03T08:30:57.653Z,38.10
2022-12-03T08:31:57.342Z,36.00
2022-12-03T08:33:03.062Z,36.80
2022-12-03T08:34:03.136Z,37.80
2022-12-03T08:35:03.080Z,36.80
2022-12-03T08:36:03.099Z,36.10
2022-12-03T08:37:03.101Z,37.70
2022-12-03T08:38:03.038Z,37.50
2022-12-03T08:39:02.994Z,38.20
2022-12-03T08:40:08.880Z,37.20
2022-12-03T08:41:08.985Z,37.40
2022-12-03T08:42:13.524Z,36.30
2022-12-03T08:43:12.829Z,35.70
2022-12-03T08:44:12.941Z,36.10
2022-12-03T08:45:12.911Z,35.90
2022-12-03T08:46:13.015Z,36.70
2022-12-03T08:47:12.871Z,34.00
2022-12-03T08:48:18.720Z,33.90
2022-12-03T08:49:18.818Z,34.40
2022-12-03T08:50:18.796Z,33.00
2022-12-03T08:51:18.798Z,34.70
2022-12-03T08:52:18.810Z,33.10
2022-12-03T08:53:24.611Z,32.70
2022-12-03T08:54:24.707Z,35.80
2022-12-03T08:55:24.670Z,35.10
2022-12-03T08:56:24.681Z,32.70
2022-12-03T08:57:24.629Z,34.30
2022-12-03T08:58:24.624Z,33.70
2022-12-03T08:59:24.568Z,34.60
2022-12-03T09:00:24.673Z,34.40
2022-12-03T09:01:24.601Z,34.90
2022-12-03T09:02:24.558Z,36.30
2022-12-03T09:03:24.480Z,34.00
2022-12-03T09:04:24.673Z,34.90
2022-12-03T09:05:25.163Z,34.70
2022-12-03T09:06:30.338Z,34.20
2022-12-03T09:07:30.523Z,34.10
2022-12-03T09:08:30.400Z,34.20
2022-12-03T09:09:30.405Z,34.90
2022-12-03T09:10:30.388Z,32.60
2022-12-03T09:11:30.348Z,36.80
2022-12-03T09:12:30.318Z,33.10
2022-12-03T09:13:30.319Z,34.00
2022-12-03T09:14:30.295Z,33.70
2022-12-03T09:15:30.249Z,33.00
2022-12-03T09:16:30.333Z,34.20
2022-12-03T09:17:30.224Z,34.60
2022-12-03T09:18:30.216Z,32.80
2022-12-03T09:19:30.198Z,35.40
2022-12-03T09:20:30.117Z,33.30
2022-12-03T09:21:30.138Z,32.10
2022-12-03T09:22:30.072Z,34.10
2022-12-03T09:23:30.063Z,33.90
2022-12-03T09:24:30.012Z,33.60
2022-12-03T09:25:30.037Z,33.90
2022-12-03T09:26:29.956Z,35.50
2022-12-03T09:27:29.941Z,34.40
2022-12-03T09:28:29.924Z,34.60
2022-12-03T09:29:29.927Z,33.10
2022-12-03T09:30:29.874Z,34.40
2022-12-03T09:31:29.976Z,33.60
2022-12-03T09:32:29.888Z,33.70
2022-12-03T09:33:29.784Z,34.70
2022-12-03T09:34:29.758Z,34.50
2022-12-03T09:35:33.634Z,33.80
2022-12-03T09:36:33.753Z,33.60
2022-12-03T09:37:33.676Z,35.50
2022-12-03T09:38:33.681Z,34.10
2022-12-03T09:39:33.653Z,33.80
2022-12-03T09:40:33.643Z,33.60
2022-12-03T09:41:33.599Z,32.70
2022-12-03T09:42:33.593Z,32.90
2022-12-03T09:43:56.362Z,35.30
2022-12-03T09:44:33.552Z,34.70
2022-12-03T09:45:33.575Z,34.00
2022-12-03T09:46:33.634Z,34.80
2022-12-03T09:47:33.465Z,35.30
2022-12-03T09:48:33.459Z,35.50
2022-12-03T09:49:33.422Z,34.80
2022-12-03T09:50:37.353Z,35.30
2022-12-03T09:51:37.424Z,35.50
2022-12-03T09:52:37.373Z,35.00
2022-12-03T09:53:41.173Z,37.00
2022-12-03T09:54:37.735Z,36.40
2022-12-03T09:55:37.322Z,36.30
2022-12-03T09:56:37.281Z,34.60
2022-12-03T09:57:37.284Z,34.70
2022-12-03T09:58:37.241Z,34.20
2022-12-03T09:59:37.233Z,33.30
2022-12-03T10:00:37.189Z,35.40
2022-12-03T10:01:37.327Z,34.20
2022-12-03T10:02:37.142Z,36.30
2022-12-03T10:03:37.174Z,34.50
2022-12-03T10:04:37.178Z,34.10
2022-12-03T10:05:37.116Z,34.00
2022-12-03T10:06:39.876Z,34.20
2022-12-03T10:07:37.089Z,34.30
2022-12-03T10:08:37.010Z,36.50
2022-12-03T10:09:37.028Z,35.90
2022-12-03T10:10:36.980Z,33.40
2022-12-03T10:11:37.014Z,36.10
2022-12-03T10:12:37.027Z,36.50
2022-12-03T10:13:36.918Z,35.70
2022-12-03T10:14:36.862Z,35.40
2022-12-03T10:15:36.901Z,37.00
2022-12-03T10:16:36.861Z,34.40
2022-12-03T10:17:36.795Z,36.60
2022-12-03T10:18:41.520Z,33.80
2022-12-03T10:19:36.738Z,35.40
2022-12-03T10:20:36.704Z,34.20
2022-12-03T10:21:36.719Z,34.30
2022-12-03T10:22:36.642Z,35.00
2022-12-03T10:23:36.659Z,33.80
2022-12-03T10:24:36.580Z,34.50
2022-12-03T10:25:36.564Z,32.60
2022-12-03T10:26:36.521Z,36.40
2022-12-03T10:27:42.464Z,32.90
2022-12-03T10:28:42.513Z,33.20
2022-12-03T10:29:42.456Z,33.00
2022-12-03T10:30:42.520Z,34.60
2022-12-03T10:31:42.396Z,33.20
2022-12-03T10:32:42.394Z,31.40
2022-12-03T10:33:42.472Z,33.80
2022-12-03T10:34:42.342Z,32.00
2022-12-03T10:35:42.290Z,34.20
2022-12-03T10:36:42.288Z,30.50
2022-12-03T10:37:42.261Z,32.00
2022-12-03T10:38:42.251Z,31.00
2022-12-03T10:39:42.311Z,31.90
2022-12-03T10:40:46.108Z,28.40
2022-12-03T10:41:46.182Z,32.00
2022-12-03T10:42:46.161Z,32.70
2022-12-03T10:43:46.160Z,35.20
2022-12-03T10:44:46.144Z,37.40
2022-12-03T10:45:46.151Z,32.50
2022-12-03T10:46:46.190Z,31.40
2022-12-03T10:47:46.165Z,30.10
2022-12-03T10:48:45.998Z,30.30
2022-12-03T10:49:45.993Z,29.20
2022-12-03T10:50:50.963Z,28.20
2022-12-03T10:51:50.961Z,29.60
2022-12-03T10:52:50.893Z,27.60
2022-12-03T10:53:50.984Z,28.90
2022-12-03T10:54:51.211Z,29.70
2022-12-03T10:55:50.907Z,28.20
2022-12-03T10:56:50.875Z,30.70
2022-12-03T10:57:50.809Z,34.70
2022-12-03T10:58:50.763Z,29.20
2022-12-03T10:59:50.804Z,28.90
2022-12-03T11:00:50.719Z,28.40
2022-12-03T11:01:55.793Z,28.50
2022-12-03T11:02:57.236Z,29.50
2022-12-03T11:03:55.819Z,27.40
2022-12-03T11:04:55.962Z,28.80
2022-12-03T11:05:55.588Z,27.80
2022-12-03T11:06:55.586Z,30.30
2022-12-03T11:07:55.681Z,31.00
2022-12-03T11:08:58.663Z,31.10
2022-12-03T11:09:55.505Z,30.00
2022-12-03T11:10:55.512Z,31.50
2022-12-03T11:11:55.453Z,28.10
2022-12-03T11:12:55.455Z,29.80
2022-12-03T11:13:55.432Z,33.70
2022-12-03T11:14:55.873Z,34.20
2022-12-03T11:15:55.386Z,32.90
2022-12-03T11:16:55.358Z,35.50
2022-12-03T11:17:55.318Z,34.50
2022-12-03T11:18:55.285Z,35.10
2022-12-03T11:19:55.279Z,35.40
2022-12-03T11:20:55.234Z,36.80
2022-12-03T11:21:55.174Z,32.40
2022-12-03T11:22:55.190Z,35.20
2022-12-03T11:23:55.121Z,37.50
2022-12-03T11:24:55.378Z,36.10
2022-12-03T11:25:55.071Z,32.60
2022-12-03T11:26:55.052Z,29.90
2022-12-03T11:27:55.012Z,29.20
2022-12-03T11:28:55.006Z,33.60
2022-12-03T11:29:54.968Z,28.70
2022-12-03T11:30:54.976Z,28.70
2022-12-03T11:31:54.910Z,27.20
2022-12-03T11:33:00.819Z,27.40
2022-12-03T11:34:00.863Z,26.10
2022-12-03T11:35:00.835Z,33.40
2022-12-03T11:36:00.871Z,35.00
2022-12-03T11:37:02.110Z,26.60
2022-12-03T11:38:00.780Z,33.20
2022-12-03T11:39:00.756Z,28.80
2022-12-03T11:40:00.767Z,27.20
2022-12-03T11:41:00.692Z,26.60
2022-12-03T11:42:00.696Z,28.00
2022-12-03T11:43:00.665Z,27.40
2022-12-03T11:44:00.667Z,29.40
2022-12-03T11:45:00.632Z,28.50
2022-12-03T11:46:04.269Z,29.50
2022-12-03T11:47:00.704Z,30.20
2022-12-03T11:48:00.562Z,31.80
2022-12-03T11:49:00.520Z,30.10
2022-12-03T11:50:00.537Z,29.40
2022-12-03T11:51:00.472Z,33.00
2022-12-03T11:52:00.435Z,31.40
2022-12-03T11:53:00.390Z,30.20
2022-12-03T11:54:00.375Z,31.40
2022-12-03T11:55:00.370Z,33.40
2022-12-03T11:56:04.401Z,33.00
2022-12-03T11:57:00.297Z,34.10
2022-12-03T11:58:00.401Z,35.70
2022-12-03T11:59:00.311Z,35.30
2022-12-03T12:00:06.179Z,33.80
2022-12-03T12:01:06.232Z,33.20
2022-12-03T12:02:06.248Z,31.10
2022-12-03T12:03:06.254Z,32.70
2022-12-03T12:04:06.166Z,34.30
2022-12-03T12:05:06.113Z,33.80
2022-12-03T12:06:06.073Z,37.10
2022-12-03T12:07:06.037Z,34.30
2022-12-03T12:08:06.128Z,36.20
2022-12-03T12:09:05.983Z,37.90
2022-12-03T12:10:05.958Z,42.40
2022-12-03T12:11:11.862Z,41.40
2022-12-03T12:12:11.926Z,43.90
2022-12-03T12:13:11.862Z,45.60
2022-12-03T12:14:12.344Z,44.50
2022-12-03T12:15:11.812Z,44.90
2022-12-03T12:16:11.933Z,47.40
2022-12-03T12:17:11.753Z,43.20
2022-12-03T12:18:11.747Z,42.20
2022-12-03T12:19:11.665Z,45.00
2022-12-03T12:20:11.658Z,44.80
2022-12-03T12:23:05.527Z,45.30
2022-12-03T12:24:05.516Z,44.80
2022-12-03T12:25:05.466Z,43.80
2022-12-03T12:26:05.438Z,43.10
2022-12-03T12:27:05.409Z,46.10
2022-12-03T12:28:05.383Z,44.30
2022-12-03T12:29:05.451Z,48.80
2022-12-03T12:30:05.334Z,44.80
2022-12-03T12:31:05.280Z,43.60
2022-12-03T12:32:11.232Z,43.80
2022-12-03T12:33:11.220Z,40.50
2022-12-03T12:34:11.223Z,41.60
2022-12-03T12:35:11.593Z,42.40
2022-12-03T12:36:15.012Z,42.00
2022-12-03T12:37:15.103Z,43.10
2022-12-03T12:38:15.082Z,43.10
2022-12-03T12:39:15.127Z,41.20
2022-12-03T12:40:15.010Z,40.00
2022-12-03T12:41:14.969Z,41.00
2022-12-03T12:42:14.978Z,40.70
2022-12-03T12:43:18.989Z,39.70
2022-12-03T12:44:14.945Z,40.80
2022-12-03T12:45:14.918Z,37.40
2022-12-03T12:46:46.076Z,40.50
2022-12-03T12:47:14.873Z,38.60
2022-12-03T12:48:14.831Z,38.40
2022-12-03T12:49:14.768Z,39.30
2022-12-03T12:50:14.864Z,40.60
2022-12-03T12:51:14.731Z,40.90
2022-12-03T12:52:14.697Z,38.80
2022-12-03T12:53:14.661Z,37.30
2022-12-03T12:54:14.647Z,36.40
2022-12-03T12:55:14.620Z,34.90
2022-12-03T12:56:14.595Z,35.10
2022-12-03T12:57:14.547Z,34.60
2022-12-03T12:58:14.527Z,34.50
2022-12-03T12:59:14.479Z,33.00
2022-12-03T13:00:14.461Z,34.10
2022-12-03T13:01:14.547Z,35.80
2022-12-03T13:02:14.495Z,32.30
2022-12-03T13:03:14.359Z,34.20
2022-12-03T13:04:14.331Z,33.50
2022-12-03T13:05:14.287Z,31.50